Time;durP1;ratioP1;P1;durP2;ratioP2;P2;SDS_P1;SDS_P2;PMS_P1;PMS_P2;Temp;Humidity;BMP_temperature;BMP_pressure;BME280_temperature;BME280_humidity;BME280_pressure;Samples;Min_cycle;Max_cycle;Signal;HPM_P1;HPM_P2
2022/08/19 00:00:35;;;;;;;11.85;8.45;;;16.10;99.90;;;;;;5054628;28;20045;-90
2022/08/19 00:03:01;;;;;;;9.95;8.30;;;16.10;99.90;;;;;;5053970;28;20044;-88
2022/08/19 00:05:27;;;;;;;10.10;8.07;;;16.00;99.90;;;;;;5054669;28;20133;-88
2022/08/19 00:07:52;;;;;;;11.90;8.00;;;16.10;99.90;;;;;;5053693;28;20060;-89
2022/08/19 00:10:20;;;;;;;9.27;7.78;;;16.00;99.90;;;;;;5054953;28;20080;-89
2022/08/19 00:12:45;;;;;;;10.30;8.38;;;16.10;99.90;;;;;;5053745;28;20049;-88
2022/08/19 00:15:14;;;;;;;9.82;7.57;;;16.00;99.90;;;;;;5036814;28;20372;-89
2022/08/19 00:17:42;;;;;;;10.90;8.20;;;16.00;99.90;;;;;;5053687;28;20048;-90
2022/08/19 00:20:10;;;;;;;13.60;7.68;;;16.00;99.90;;;;;;5053662;28;20049;-90
2022/08/19 00:22:36;;;;;;;9.38;7.38;;;16.00;99.90;;;;;;5054603;28;20452;-89
2022/08/19 00:25:03;;;;;;;11.98;8.13;;;16.10;99.90;;;;;;5054443;28;20094;-90
2022/08/19 00:27:28;;;;;;;10.13;8.13;;;16.10;99.90;;;;;;5053463;28;20056;-89
2022/08/19 00:29:54;;;;;;;11.00;8.35;;;16.10;99.90;;;;;;5052846;28;20044;-90
2022/08/19 00:32:20;;;;;;;10.63;8.25;;;16.00;99.90;;;;;;5053283;28;20040;-89
2022/08/19 00:34:46;;;;;;;10.02;7.85;;;16.00;99.90;;;;;;5053636;28;20115;-90
2022/08/19 00:37:12;;;;;;;10.30;8.07;;;16.00;99.90;;;;;;5052603;28;20069;-89
2022/08/19 00:39:38;;;;;;;12.68;7.85;;;15.90;99.90;;;;;;5036404;28;20045;-89
2022/08/19 00:42:04;;;;;;;11.93;8.32;;;15.90;99.90;;;;;;5052960;28;20102;-89
2022/08/19 00:44:30;;;;;;;16.00;8.80;;;15.90;99.90;;;;;;5053461;28;20128;-89
2022/08/19 00:46:58;;;;;;;10.45;8.05;;;15.90;99.90;;;;;;5053199;28;20111;-90
2022/08/19 00:49:43;;;;;;;11.20;8.07;;;15.90;99.90;;;;;;5052547;28;20041;-90
2022/08/19 00:52:14;;;;;;;11.75;8.35;;;15.90;99.90;;;;;;5053033;28;20076;-90
2022/08/19 00:54:40;;;;;;;;;;;15.90;99.90;;;;;;5054305;28;20051;-90
2022/08/19 00:57:10;;;;;;;12.50;8.05;;;15.90;99.90;;;;;;5036165;28;19924;-90
2022/08/19 00:59:38;;;;;;;10.23;7.15;;;15.90;99.90;;;;;;5054014;28;20056;-89
2022/08/19 01:02:04;;;;;;;10.93;8.68;;;15.90;99.90;;;;;;5052819;28;20047;-88
2022/08/19 01:04:30;;;;;;;9.63;8.40;;;15.90;99.90;;;;;;5053731;28;20041;-90
2022/08/19 01:06:56;;;;;;;13.25;8.50;;;15.80;99.90;;;;;;5052492;28;20049;-90
2022/08/19 01:09:22;;;;;;;13.77;9.30;;;15.90;99.90;;;;;;5053554;28;20106;-91
2022/08/19 01:11:48;;;;;;;13.68;9.57;;;15.80;99.90;;;;;;5052049;28;20441;-90
2022/08/19 01:14:16;;;;;;;10.98;9.13;;;15.80;99.90;;;;;;5052509;28;20052;-89
2022/08/19 01:16:43;;;;;;;11.73;9.20;;;15.80;99.90;;;;;;5052403;28;20048;-90
2022/08/19 01:19:29;;;;;;;12.18;9.48;;;15.80;99.90;;;;;;5052397;28;20053;-90
2022/08/19 01:22:05;;;;;;;12.70;9.65;;;15.80;99.90;;;;;;5052226;28;20044;-89
2022/08/19 01:24:31;;;;;;;13.07;10.23;;;15.80;99.90;;;;;;5053116;28;20490;-90
2022/08/19 01:26:57;;;;;;;15.98;10.48;;;15.80;99.90;;;;;;5053448;28;20106;-89
2022/08/19 01:29:23;;;;;;;10.63;9.43;;;15.70;99.90;;;;;;5052045;28;20037;-91
2022/08/19 01:31:51;;;;;;;15.00;9.63;;;15.70;99.90;;;;;;5052227;28;20136;-90
2022/08/19 01:34:18;;;;;;;12.13;10.45;;;15.70;99.90;;;;;;5052270;28;20116;-90
2022/08/19 01:36:47;;;;;;;15.27;10.18;;;15.70;99.90;;;;;;5053005;28;20045;-90
2022/08/19 01:39:19;;;;;;;14.43;10.70;;;15.60;99.90;;;;;;5051710;28;20048;-90
2022/08/19 01:41:46;;;;;;;14.50;10.90;;;15.60;99.90;;;;;;5052187;28;20137;-90
2022/08/19 01:44:12;;;;;;;14.73;11.00;;;15.60;99.90;;;;;;5052967;28;20554;-90
2022/08/19 01:46:38;;;;;;;18.63;11.88;;;15.60;99.90;;;;;;5052844;28;20120;-91
2022/08/19 01:49:05;;;;;;;13.52;11.40;;;15.50;99.90;;;;;;5051702;28;20041;-90
2022/08/19 01:51:31;;;;;;;18.08;11.77;;;15.60;99.90;;;;;;5035181;28;20398;-90
2022/08/19 01:53:57;;;;;;;15.82;11.77;;;15.50;99.90;;;;;;5034552;28;20057;-91
2022/08/19 01:56:24;;;;;;;15.70;11.23;;;15.60;99.90;;;;;;5051917;28;20080;-90
2022/08/19 01:58:56;;;;;;;16.52;11.60;;;15.50;99.90;;;;;;5051877;28;20045;-91
2022/08/19 02:01:22;;;;;;;15.85;11.50;;;15.50;99.90;;;;;;5050769;28;20049;-91
2022/08/19 02:03:48;;;;;;;16.85;11.77;;;15.50;99.90;;;;;;5051684;28;20057;-89
2022/08/19 02:06:14;;;;;;;21.50;11.68;;;15.50;99.90;;;;;;5051411;28;20839;-90
2022/08/19 02:08:40;;;;;;;15.13;11.68;;;15.40;99.90;;;;;;5051074;28;20048;-90
2022/08/19 02:11:07;;;;;;;13.30;10.85;;;15.40;99.90;;;;;;5051602;28;20043;-90
2022/08/19 02:13:33;;;;;;;19.92;12.60;;;15.40;99.90;;;;;;5051669;28;20402;-90
2022/08/19 02:16:00;;;;;;;14.20;11.82;;;15.30;99.90;;;;;;5051355;28;20052;-90
2022/08/19 02:18:26;;;;;;;16.77;12.13;;;15.30;99.90;;;;;;5052554;28;20064;-91
2022/08/19 02:20:52;;;;;;;17.67;12.68;;;15.30;99.90;;;;;;5052381;28;20049;-90
2022/08/19 02:23:18;;;;;;;19.13;12.73;;;15.20;99.90;;;;;;5052308;28;20486;-90
2022/08/19 02:25:46;;;;;;;18.60;12.18;;;15.20;99.90;;;;;;5051437;28;20041;-91
2022/08/19 02:28:12;;;;;;;18.15;12.40;;;15.20;99.90;;;;;;5051418;28;20053;-90
2022/08/19 02:30:38;;;;;;;16.85;11.38;;;15.10;99.90;;;;;;5051350;28;20108;-91
2022/08/19 02:33:04;;;;;;;18.48;11.90;;;15.10;99.90;;;;;;5052334;28;20128;-90
2022/08/19 02:35:31;;;;;;;19.13;12.88;;;15.10;99.90;;;;;;5051129;28;20053;-89
2022/08/19 02:40:49;;;;;;;16.63;12.35;;;15.10;99.90;;;;;;5051193;28;20059;-90
2022/08/19 02:43:15;;;;;;;17.05;12.55;;;15.00;99.90;;;;;;5051194;28;20115;-89
2022/08/19 02:45:41;;;;;;;19.55;13.27;;;15.00;99.90;;;;;;5050883;28;20559;-90
2022/08/19 02:48:07;;;;;;;20.17;13.07;;;15.00;99.90;;;;;;5050763;28;20045;-89
2022/08/19 02:50:33;;;;;;;17.90;13.20;;;14.90;99.90;;;;;;5050838;28;20075;-90
2022/08/19 02:52:58;;;;;;;16.27;12.52;;;14.90;99.90;;;;;;5051255;28;20497;-90
2022/08/19 02:55:24;;;;;;;21.45;14.15;;;15.00;99.90;;;;;;5051160;28;20060;-90
2022/08/19 02:57:50;;;;;;;20.10;13.57;;;15.00;99.90;;;;;;5034529;28;20045;-91
2022/08/19 03:00:16;;;;;;;17.35;12.77;;;14.90;99.90;;;;;;5050632;28;20429;-90
2022/08/19 03:02:42;;;;;;;19.25;13.88;;;14.90;99.90;;;;;;5050233;28;20406;-90
2022/08/19 03:05:09;;;;;;;24.75;14.65;;;15.00;99.90;;;;;;5033842;28;20063;-90
2022/08/19 03:07:36;;;;;;;23.13;14.95;;;14.90;99.90;;;;;;5033886;28;20053;-89
2022/08/19 03:10:03;;;;;;;21.83;14.63;;;14.90;99.90;;;;;;5050417;28;20053;-89
2022/08/19 03:12:29;;;;;;;21.67;14.45;;;14.90;99.90;;;;;;5051841;28;20048;-89
2022/08/19 03:14:54;;;;;;;18.00;14.10;;;14.90;99.90;;;;;;5054916;28;20041;-89
2022/08/19 03:17:20;;;;;;;24.95;15.07;;;14.90;99.90;;;;;;5055582;28;20045;-90
2022/08/19 03:19:46;;;;;;;22.02;15.65;;;14.80;99.90;;;;;;5037957;28;20041;-90
2022/08/19 03:22:11;;;;;;;22.38;15.63;;;14.90;99.90;;;;;;5053966;28;20075;-89
2022/08/19 03:24:38;;;;;;;23.25;15.20;;;14.80;99.90;;;;;;5054395;28;20045;-90
2022/08/19 03:27:04;;;;;;;25.30;16.02;;;14.80;99.90;;;;;;5055390;28;20033;-89
2022/08/19 03:29:31;;;;;;;23.40;15.90;;;14.80;99.90;;;;;;5037453;28;20083;-89
2022/08/19 03:32:00;;;;;;;22.45;15.93;;;14.90;99.90;;;;;;5054092;28;20048;-89
2022/08/19 03:34:28;;;;;;;29.00;16.30;;;14.80;99.90;;;;;;5054064;28;20052;-89
2022/08/19 03:37:00;;;;;;;26.05;16.45;;;14.80;99.90;;;;;;5054353;28;20049;-89
2022/08/19 03:39:26;;;;;;;23.08;16.40;;;14.70;99.90;;;;;;5037398;28;20061;-90
2022/08/19 03:41:56;;;;;;;26.67;17.27;;;14.70;99.90;;;;;;5054307;28;20037;-89
2022/08/19 03:44:23;;;;;;;32.50;17.50;;;14.70;99.90;;;;;;5055027;28;20478;-89
2022/08/19 03:46:55;;;;;;;26.15;17.58;;;14.70;99.90;;;;;;5053798;28;20128;-89
2022/08/19 03:49:23;;;;;;;29.27;18.33;;;14.70;99.90;;;;;;5054818;28;20036;-89
2022/08/19 03:51:50;;;;;;;30.90;18.20;;;14.70;99.90;;;;;;5055376;28;20553;-90
2022/08/19 03:54:22;;;;;;;25.90;17.33;;;14.70;99.90;;;;;;5054093;28;20057;-90
2022/08/19 03:56:49;;;;;;;25.55;16.98;;;14.70;99.90;;;;;;5054194;28;20534;-89
2022/08/19 03:59:24;;;;;;;25.75;17.40;;;14.60;99.90;;;;;;5037307;28;20059;-89
2022/08/19 04:01:51;;;;;;;28.90;17.60;;;14.70;99.90;;;;;;5053686;28;20080;-89
2022/08/19 04:04:16;;;;;;;28.17;16.88;;;14.60;99.90;;;;;;5055201;28;20053;-89
2022/08/19 04:06:43;;;;;;;29.45;17.70;;;14.60;99.90;;;;;;5036974;28;20555;-89
2022/08/19 04:09:10;;;;;;;35.95;20.80;;;14.50;99.90;;;;;;5053188;28;20487;-90
2022/08/19 04:11:42;;;;;;;31.60;17.77;;;14.60;99.90;;;;;;5054539;28;20553;-89
2022/08/19 04:14:11;;;;;;;26.42;17.83;;;14.50;99.90;;;;;;5036916;28;20041;-89
2022/08/19 04:16:37;;;;;;;27.77;18.10;;;14.50;99.90;;;;;;5054177;28;20418;-89
2022/08/19 04:19:04;;;;;;;33.08;18.73;;;14.50;99.90;;;;;;5053155;28;20052;-89
2022/08/19 04:21:30;;;;;;;30.77;18.58;;;14.50;99.90;;;;;;5053295;28;20044;-90
2022/08/19 04:23:57;;;;;;;33.55;19.40;;;14.50;99.90;;;;;;5052648;28;20044;-90
2022/08/19 04:26:25;;;;;;;30.25;19.92;;;14.50;99.90;;;;;;5052418;28;20053;-89
2022/08/19 04:28:51;;;;;;;39.13;20.67;;;14.50;99.90;;;;;;5053303;28;20482;-89
2022/08/19 04:31:20;;;;;;;35.55;20.73;;;14.50;99.90;;;;;;5069828;28;20102;-90
2022/08/19 04:33:46;;;;;;;34.60;20.83;;;14.50;99.90;;;;;;5053867;28;20123;-89
2022/08/19 04:36:20;;;;;;;33.45;20.45;;;14.50;99.90;;;;;;5053028;28;20488;-89
2022/08/19 04:38:47;;;;;;;35.78;20.50;;;14.40;99.90;;;;;;5053375;28;20163;-89
2022/08/19 04:44:05;;;;;;;34.42;19.48;;;14.50;99.90;;;;;;5035041;28;20069;-89
2022/08/19 04:46:31;;;;;;;36.53;20.85;;;14.50;99.90;;;;;;5035403;28;20057;-89
2022/08/19 04:49:04;;;;;;;37.08;21.02;;;14.60;99.90;;;;;;5034856;28;20587;-89
2022/08/19 04:51:31;;;;;;;29.98;19.77;;;14.50;99.90;;;;;;5051576;28;20049;-88
2022/08/19 04:53:57;;;;;;;36.67;19.95;;;14.50;99.90;;;;;;5034620;28;20142;-89
2022/08/19 04:56:26;;;;;;;38.90;21.02;;;14.60;99.90;;;;;;5034959;28;20056;-89
2022/08/19 04:58:53;;;;;;;32.35;19.35;;;14.60;99.90;;;;;;5017878;28;20056;-91
2022/08/19 05:01:24;;;;;;;32.78;19.50;;;14.60;99.90;;;;;;5034967;28;20049;-88
2022/08/19 05:03:51;;;;;;;29.02;18.58;;;14.60;99.90;;;;;;5035066;28;20044;-89
2022/08/19 05:06:19;;;;;;;36.55;21.05;;;14.60;99.90;;;;;;5034708;28;20049;-89
2022/08/19 05:08:45;;;;;;;35.15;19.08;;;14.70;99.90;;;;;;5034548;28;20118;-89
2022/08/19 05:11:17;;;;;;;37.45;20.52;;;14.70;99.90;;;;;;5018364;28;20094;-88
2022/08/19 05:13:46;;;;;;;37.55;21.23;;;14.70;99.90;;;;;;5017516;28;20068;-88
2022/08/19 05:16:13;;;;;;;27.55;17.70;;;14.70;99.90;;;;;;5034745;28;20037;-89
2022/08/19 05:24:10;;;;;;;34.58;19.55;;;14.80;99.90;;;;;;5052452;28;20158;-88
2022/08/19 05:26:41;;;;;;;35.10;19.92;;;15.00;99.90;;;;;;5033643;28;20049;-88
2022/08/19 05:29:08;;;;;;;33.25;20.42;;;15.00;99.90;;;;;;5028825;28;20410;-88
2022/08/19 05:31:35;;;;;;;36.08;20.60;;;15.00;99.90;;;;;;5048767;28;20088;-89
2022/08/19 05:34:01;;;;;;;32.22;19.30;;;14.90;99.90;;;;;;5051914;28;20547;-88
2022/08/19 05:36:28;;;;;;;33.80;19.30;;;15.10;99.90;;;;;;5051656;28;20063;-88
2022/08/19 05:38:54;;;;;;;33.75;20.65;;;15.10;99.90;;;;;;5035321;28;20048;-88
2022/08/19 05:41:21;;;;;;;31.13;20.42;;;15.20;99.90;;;;;;5035439;28;20061;-90
2022/08/19 05:43:46;;;;;;;36.67;21.17;;;15.20;99.90;;;;;;5053184;28;20049;-88
2022/08/19 05:46:19;;;;;;;35.42;22.05;;;15.30;99.90;;;;;;5035402;28;20064;-88
2022/08/19 05:48:49;;;;;;;33.13;22.10;;;15.40;99.90;;;;;;5051881;28;20074;-89
2022/08/19 05:51:15;;;;;;;30.00;22.35;;;15.50;99.90;;;;;;5051702;28;20051;-88
2022/08/19 05:53:53;;;;;;;31.73;21.48;;;15.50;99.90;;;;;;5035566;28;20124;-88
2022/08/19 05:56:20;;;;;;;36.42;22.83;;;15.80;99.90;;;;;;5028372;28;20127;-89
2022/08/19 05:58:45;;;;;;;31.23;21.92;;;15.80;99.90;;;;;;5040819;28;20144;-89
2022/08/19 06:01:29;;;;;;;32.90;22.33;;;15.90;99.90;;;;;;5052336;28;20127;-88
2022/08/19 06:03:56;;;;;;;31.40;22.25;;;15.90;99.90;;;;;;5020246;28;20057;-89
2022/08/19 06:06:22;;;;;;;37.63;23.73;;;16.00;99.90;;;;;;5034545;28;20057;-88
2022/08/19 06:08:49;;;;;;;28.67;19.95;;;16.10;99.90;;;;;;5034820;28;20391;-88
2022/08/19 06:11:21;;;;;;;29.85;21.70;;;16.20;99.90;;;;;;5051048;28;20061;-89
2022/08/19 06:13:50;;;;;;;29.63;21.95;;;16.30;99.90;;;;;;5034510;28;20091;-85
2022/08/19 06:16:21;;;;;;;27.83;20.73;;;16.50;99.90;;;;;;5052850;28;20120;-90
2022/08/19 06:18:50;;;;;;;26.10;21.05;;;16.50;99.90;;;;;;5052307;28;20132;-90
2022/08/19 06:21:15;;;;;;;27.90;20.25;;;16.60;99.90;;;;;;5052217;28;20090;-88
2022/08/19 06:23:41;;;;;;;29.55;20.27;;;16.80;99.90;;;;;;5053293;28;20053;-88
2022/08/19 06:26:12;;;;;;;28.90;20.30;;;16.80;99.90;;;;;;5052410;28;20106;-88
2022/08/19 06:28:42;;;;;;;27.85;20.23;;;16.90;99.90;;;;;;5054209;28;20041;-89
2022/08/19 06:31:08;;;;;;;24.65;19.02;;;17.00;99.90;;;;;;5035654;28;20052;-87
2022/08/19 06:33:35;;;;;;;22.65;18.05;;;17.10;99.90;;;;;;5051991;28;20049;-88
2022/08/19 06:36:00;;;;;;;23.45;18.27;;;17.20;99.90;;;;;;5053173;28;20041;-87
2022/08/19 06:38:26;;;;;;;23.33;18.02;;;17.30;99.90;;;;;;5051964;28;20055;-88
2022/08/19 06:41:03;;;;;;;23.42;17.55;;;17.40;99.90;;;;;;5053552;28;20401;-89
2022/08/19 06:43:29;;;;;;;21.83;17.33;;;17.50;99.90;;;;;;5053320;28;20045;-89
2022/08/19 06:45:55;;;;;;;22.23;16.50;;;17.70;99.90;;;;;;5053669;28;20163;-86
2022/08/19 06:48:20;;;;;;;22.70;17.40;;;17.80;99.90;;;;;;5053507;28;20071;-86
2022/08/19 06:50:47;;;;;;;22.75;17.48;;;17.90;99.90;;;;;;5057167;28;20048;-87
2022/08/19 06:53:12;;;;;;;21.95;14.45;;;18.00;99.90;;;;;;5056272;28;20051;-88
2022/08/19 06:55:40;;;;;;;20.77;16.00;;;18.20;99.90;;;;;;5056554;28;20494;-87
2022/08/19 06:58:05;;;;;;;18.70;14.70;;;18.30;99.90;;;;;;5056574;28;20052;-88
2022/08/19 07:00:31;;;;;;;19.17;14.93;;;18.50;99.90;;;;;;5056763;28;20562;-87
2022/08/19 07:02:58;;;;;;;19.58;14.95;;;18.60;99.90;;;;;;5057128;28;20056;-89
2022/08/19 07:05:24;;;;;;;16.63;13.35;;;18.70;99.90;;;;;;5055236;28;20049;-87
2022/08/19 07:07:50;;;;;;;17.08;14.65;;;18.80;99.90;;;;;;5056510;28;20067;-88
2022/08/19 07:10:16;;;;;;;17.63;13.85;;;18.90;99.90;;;;;;5055759;28;20045;-87
2022/08/19 07:12:41;;;;;;;16.90;14.40;;;19.00;99.90;;;;;;5056335;28;20045;-86
2022/08/19 07:15:09;;;;;;;17.00;14.77;;;19.10;99.90;;;;;;5054694;28;20488;-87
2022/08/19 07:17:38;;;;;;;19.50;15.63;;;19.20;99.90;;;;;;5055799;28;20049;-87
2022/08/19 07:20:06;;;;;;;17.98;15.23;;;19.30;99.90;;;;;;5055970;28;20124;-89
2022/08/19 07:22:33;;;;;;;16.80;14.95;;;19.40;99.90;;;;;;5037527;28;20061;-87
2022/08/19 07:24:59;;;;;;;19.50;15.75;;;19.50;99.90;;;;;;5055173;28;20040;-88
2022/08/19 07:27:25;;;;;;;17.70;14.52;;;19.60;99.90;;;;;;5054840;28;20061;-88
2022/08/19 07:29:52;;;;;;;16.58;14.20;;;19.60;99.90;;;;;;5055568;28;20083;-88
2022/08/19 07:32:18;;;;;;;17.67;14.48;;;19.70;99.90;;;;;;5056086;28;20044;-89
2022/08/19 07:34:45;;;;;;;14.30;12.82;;;19.80;99.90;;;;;;5055914;28;20037;-88
2022/08/19 07:37:10;;;;;;;16.77;13.82;;;19.90;99.90;;;;;;5055773;28;20053;-89
2022/08/19 07:39:37;;;;;;;13.00;11.50;;;20.00;99.90;;;;;;5055482;28;20041;-84
2022/08/19 07:42:07;;;;;;;12.02;10.07;;;20.10;99.90;;;;;;5054585;28;20060;-88
2022/08/19 07:44:34;;;;;;;15.60;14.00;;;20.20;99.90;;;;;;5054306;28;20036;-88
2022/08/19 07:47:01;;;;;;;16.48;12.45;;;20.40;99.90;;;;;;5054497;28;20049;-89
2022/08/19 07:49:27;;;;;;;18.48;13.95;;;20.50;99.90;;;;;;5055376;28;20429;-87
2022/08/19 07:52:05;;;;;;;17.67;13.73;;;20.70;99.90;;;;;;5055646;28;20049;-89
2022/08/19 07:54:35;;;;;;;16.98;14.20;;;20.90;99.90;;;;;;5054354;28;20103;-88
2022/08/19 07:57:02;;;;;;;18.30;14.73;;;21.00;99.90;;;;;;5037010;28;20053;-88
2022/08/19 07:59:28;;;;;;;15.63;13.82;;;21.10;99.90;;;;;;5055029;28;20049;-88
2022/08/19 08:01:55;;;;;;;15.05;13.18;;;21.20;99.90;;;;;;5054616;28;20075;-86
2022/08/19 08:10:08;;;;;;;18.38;14.75;;;21.70;99.90;;;;;;4997001;28;20076;-88
2022/08/19 08:12:41;;;;;;;18.52;14.13;;;21.80;99.90;;;;;;4996641;28;20053;-89
2022/08/19 08:15:16;;;;;;;17.30;14.10;;;22.00;99.90;;;;;;5013126;28;20054;-87
2022/08/19 08:17:43;;;;;;;16.73;14.38;;;22.20;99.90;;;;;;5013104;28;20626;-87
2022/08/19 08:20:10;;;;;;;19.83;15.50;;;22.30;99.90;;;;;;5012913;28;20068;-89
2022/08/19 08:25:22;;;;;;;13.55;9.27;;;23.10;99.90;;;;;;4997223;28;20129;-89
2022/08/19 08:27:49;;;;;;;15.68;13.60;;;23.50;99.90;;;;;;4996653;28;20061;-89
2022/08/19 08:30:23;;;;;;;17.38;14.23;;;23.90;99.90;;;;;;5013183;28;20085;-88
2022/08/19 08:32:49;;;;;;;15.35;13.13;;;24.30;99.90;;;;;;5013074;28;20056;-89
2022/08/19 08:35:18;;;;;;;18.98;15.77;;;24.70;99.90;;;;;;5012907;28;20046;-89
2022/08/19 08:37:45;;;;;;;19.50;15.20;;;25.40;99.90;;;;;;4996640;28;20064;-88
2022/08/19 08:40:42;;;;;;;22.10;17.67;;;26.10;99.90;;;;;;5012683;28;20396;-90
2022/08/19 08:43:13;;;;;;;21.35;16.25;;;26.80;99.90;;;;;;5000202;28;20046;-86
2022/08/19 08:45:51;;;;;;;16.92;14.90;;;27.30;99.90;;;;;;5054307;28;20418;-88
2022/08/19 08:48:46;;;;;;;17.45;14.82;;;27.80;99.90;;;;;;5036315;28;20147;-88
2022/08/19 08:51:27;;;;;;;16.73;15.02;;;28.30;99.90;;;;;;5053246;28;20041;-88
2022/08/19 08:53:54;;;;;;;17.58;14.10;;;29.00;99.90;;;;;;5053073;28;20466;-87
2022/08/19 08:56:20;;;;;;;15.07;13.50;;;29.40;95.30;;;;;;5054430;28;20053;-89
2022/08/19 08:59:01;;;;;;;18.98;12.75;;;29.60;89.10;;;;;;5054180;28;20037;-90
2022/08/19 09:01:27;;;;;;;15.20;13.70;;;29.90;90.80;;;;;;5036809;28;20095;-84
2022/08/19 09:03:53;;;;;;;16.65;13.75;;;30.00;80.00;;;;;;5053228;28;20052;-90
2022/08/19 09:06:25;;;;;;;13.10;11.80;;;30.10;79.90;;;;;;5053987;28;20055;-87
2022/08/19 09:09:39;;;;;;;16.60;12.65;;;30.40;79.70;;;;;;5054391;28;20457;-90
2022/08/19 09:12:13;;;;;;;12.75;10.90;;;30.90;80.90;;;;;;5034732;28;20212;-89
2022/08/19 09:14:57;;;;;;;10.18;9.15;;;31.40;71.10;;;;;;5018485;28;20607;-91
2022/08/19 09:17:33;;;;;;;14.20;11.27;;;31.70;75.50;;;;;;5035564;28;20137;-89
2022/08/19 09:20:13;;;;;;;12.80;10.65;;;32.20;67.90;;;;;;5051789;28;20060;-91
2022/08/19 09:22:40;;;;;;;;;;;32.50;64.70;;;;;;5035521;28;20071;-87
2022/08/19 09:25:09;;;;;;;12.25;10.68;;;33.00;70.90;;;;;;5035380;28;19931;-88
2022/08/19 09:27:38;;;;;;;11.63;10.43;;;33.10;64.50;;;;;;5051107;28;20522;-89
2022/08/19 09:30:04;;;;;;;13.80;12.38;;;33.30;62.60;;;;;;5033939;28;20057;-89
2022/08/19 09:32:31;;;;;;;12.10;11.00;;;33.60;60.00;;;;;;5055100;28;20223;-87
2022/08/19 09:34:57;;;;;;;14.07;11.30;;;33.70;60.00;;;;;;5034485;28;20513;-88
2022/08/19 09:37:24;;;;;;;13.70;12.40;;;33.60;59.20;;;;;;5035685;28;20604;-88
2022/08/19 09:39:50;;;;;;;12.63;11.43;;;33.70;58.50;;;;;;5051117;28;20045;-88
2022/08/19 09:42:17;;;;;;;11.43;10.43;;;33.80;57.70;;;;;;5051645;28;20049;-87
2022/08/19 09:44:43;;;;;;;12.52;9.82;;;33.90;57.00;;;;;;5053357;28;20735;-87
2022/08/19 09:47:11;;;;;;;10.30;9.27;;;33.90;56.30;;;;;;5050318;28;20490;-90
2022/08/19 09:49:38;;;;;;;10.73;9.63;;;34.10;56.20;;;;;;5054092;28;20052;-89
2022/08/19 09:52:05;;;;;;;11.18;9.98;;;34.30;55.40;;;;;;5052895;28;20080;-88
2022/08/19 09:54:31;;;;;;;11.60;8.73;;;34.50;55.40;;;;;;5053607;28;20480;-88
2022/08/19 09:57:00;;;;;;;12.10;10.93;;;34.60;54.70;;;;;;5053375;28;20132;-89
2022/08/19 09:59:26;;;;;;;11.18;10.00;;;34.80;54.10;;;;;;5053841;28;20522;-91
2022/08/19 10:01:52;;;;;;;11.93;10.82;;;34.90;53.60;;;;;;5052891;28;20044;-86
2022/08/19 10:04:19;;;;;;;11.45;9.73;;;34.90;52.50;;;;;;5036573;28;20487;-88
2022/08/19 10:06:47;;;;;;;11.35;10.25;;;34.60;52.70;;;;;;5052529;28;20067;-86
2022/08/19 10:09:14;;;;;;;10.25;9.32;;;34.50;52.20;;;;;;5054724;28;20040;-85
2022/08/19 10:11:42;;;;;;;11.65;9.23;;;34.00;53.30;;;;;;5054503;28;20049;-85
2022/08/19 10:14:08;;;;;;;10.02;9.02;;;33.50;54.70;;;;;;5053780;28;20049;-88
2022/08/19 10:16:36;;;;;;;8.73;7.43;;;33.20;55.10;;;;;;5035354;28;20450;-87
2022/08/19 10:19:03;;;;;;;9.82;8.65;;;32.90;54.20;;;;;;5051602;28;20084;-86
2022/08/19 10:21:31;;;;;;;10.93;9.55;;;32.60;54.70;;;;;;5051642;28;20051;-90
2022/08/19 10:24:01;;;;;;;11.32;9.98;;;32.50;55.90;;;;;;5051672;28;20494;-89
2022/08/19 10:26:31;;;;;;;15.60;12.13;;;32.50;55.60;;;;;;5051693;28;20045;-89
2022/08/19 10:28:57;;;;;;;;;;;32.50;56.60;;;;;;5052211;28;20383;-89
2022/08/19 10:31:31;;;;;;;11.50;10.30;;;32.50;57.60;;;;;;5051673;28;19927;-87
2022/08/19 10:33:57;;;;;;;12.75;11.52;;;32.50;56.20;;;;;;5051473;28;20474;-88
2022/08/19 10:36:35;;;;;;;12.93;11.40;;;31.90;57.30;;;;;;5052444;28;20055;-87
2022/08/19 10:39:05;;;;;;;11.07;9.45;;;31.80;58.90;;;;;;5052309;28;20084;-88
2022/08/19 10:41:32;;;;;;;9.35;8.45;;;31.80;58.40;;;;;;5051332;28;20047;-87
2022/08/19 10:44:04;;;;;;;10.27;9.27;;;31.90;58.20;;;;;;5051491;28;20429;-87
2022/08/19 10:46:32;;;;;;;8.98;8.05;;;32.10;58.00;;;;;;5052313;28;20049;-88
2022/08/19 10:49:00;;;;;;;9.18;6.55;;;32.20;57.80;;;;;;5052237;28;20056;-90
2022/08/19 10:54:11;;;;;;;8.70;7.80;;;32.80;55.60;;;;;;5052468;28;20114;-88
2022/08/19 10:56:51;;;;;;;13.80;11.23;;;32.70;56.10;;;;;;5052441;28;20045;-86
2022/08/19 10:59:27;;;;;;;16.63;11.48;;;32.90;55.70;;;;;;5052190;28;20484;-88
2022/08/19 11:01:54;;;;;;;14.27;11.93;;;33.00;55.70;;;;;;5052431;28;20402;-87
2022/08/19 11:04:20;;;;;;;12.10;10.63;;;32.90;57.40;;;;;;5051378;28;20110;-88
2022/08/19 11:06:47;;;;;;;13.57;11.73;;;32.80;56.40;;;;;;5052481;28;20414;-85
2022/08/19 11:09:19;;;;;;;16.65;13.35;;;32.70;56.20;;;;;;5052149;28;20041;-88
2022/08/19 11:11:47;;;;;;;14.30;11.90;;;32.60;57.00;;;;;;5052114;28;20052;-85
2022/08/19 11:14:15;;;;;;;12.45;10.27;;;32.50;56.40;;;;;;5052117;28;20102;-88
2022/08/19 11:16:42;;;;;;;12.55;11.25;;;32.50;57.10;;;;;;5034192;28;20106;-88
2022/08/19 11:19:09;;;;;;;11.73;10.50;;;32.80;56.50;;;;;;5034501;28;20113;-88
2022/08/19 11:21:39;;;;;;;14.52;13.02;;;33.10;56.30;;;;;;5034653;28;20092;-85
2022/08/19 11:24:08;;;;;;;17.00;13.85;;;33.40;55.40;;;;;;5034607;28;20080;-88
2022/08/19 11:26:35;;;;;;;12.52;11.23;;;33.70;55.10;;;;;;5034182;28;20486;-87
2022/08/19 11:29:01;;;;;;;15.63;13.38;;;34.00;55.40;;;;;;5051806;28;20063;-87
2022/08/19 11:31:30;;;;;;;13.55;12.15;;;34.40;53.70;;;;;;5051944;28;20045;-88
2022/08/19 11:34:02;;;;;;;14.05;12.07;;;34.60;53.80;;;;;;5035282;28;20091;-88
2022/08/19 11:36:31;;;;;;;13.55;10.65;;;34.90;52.90;;;;;;5055678;28;20051;-85
2022/08/19 11:38:56;;;;;;;11.30;9.40;;;34.90;52.30;;;;;;5055676;28;20473;-86
2022/08/19 11:41:23;;;;;;;11.25;10.05;;;34.70;53.00;;;;;;5021549;28;20072;-87
2022/08/19 11:43:50;;;;;;;12.68;10.65;;;34.70;51.60;;;;;;5055481;28;20041;-86
2022/08/19 11:46:16;;;;;;;10.88;9.63;;;34.80;50.80;;;;;;5055388;28;20553;-87
2022/08/19 11:48:43;;;;;;;12.85;10.80;;;34.70;51.60;;;;;;5055500;28;20516;-87
2022/08/19 11:51:15;;;;;;;12.27;10.98;;;34.90;52.50;;;;;;5037722;28;20049;-88
2022/08/19 11:53:42;;;;;;;14.95;12.90;;;35.30;52.70;;;;;;5055329;28;20247;-85
2022/08/19 11:56:09;;;;;;;11.60;10.13;;;35.60;51.20;;;;;;5055516;28;20114;-84
2022/08/19 11:58:35;;;;;;;13.70;10.45;;;35.70;50.70;;;;;;5055096;28;20067;-86
2022/08/19 12:01:01;;;;;;;9.77;7.75;;;35.30;49.40;;;;;;5055451;28;20067;-86
2022/08/19 12:03:27;;;;;;;12.18;10.93;;;35.10;51.00;;;;;;5037726;28;20490;-83
2022/08/19 12:05:53;;;;;;;14.63;12.95;;;35.30;50.40;;;;;;5037785;28;20123;-85
2022/08/19 12:08:19;;;;;;;12.68;11.35;;;35.20;49.80;;;;;;5055249;28;20063;-86
2022/08/19 12:10:45;;;;;;;11.50;10.38;;;35.20;50.20;;;;;;5055250;28;20049;-86
2022/08/19 12:13:15;;;;;;;8.30;7.50;;;34.90;50.50;;;;;;5055083;28;20090;-87
2022/08/19 12:15:41;;;;;;;11.98;9.98;;;34.30;51.70;;;;;;5037601;28;20049;-86
2022/08/19 12:18:08;;;;;;;13.77;8.90;;;33.70;50.80;;;;;;5055158;28;20048;-89
2022/08/19 12:20:36;;;;;;;10.88;9.77;;;33.00;52.00;;;;;;5055133;28;20044;-87
2022/08/19 12:23:06;;;;;;;10.82;9.25;;;32.40;53.00;;;;;;5037787;28;20057;-85
2022/08/19 12:25:34;;;;;;;9.60;8.65;;;31.90;54.00;;;;;;5055057;28;20052;-84
2022/08/19 12:28:00;;;;;;;11.68;9.02;;;31.50;54.20;;;;;;5037099;28;20044;-86
2022/08/19 12:30:25;;;;;;;9.63;8.73;;;31.20;55.20;;;;;;5055603;28;20037;-86
2022/08/19 12:32:51;;;;;;;10.27;9.18;;;31.00;54.30;;;;;;5038581;28;20055;-87
2022/08/19 12:35:19;;;;;;;10.10;8.32;;;31.00;55.20;;;;;;5055209;28;20071;-87
2022/08/19 12:37:46;;;;;;;12.10;8.95;;;31.20;55.50;;;;;;5054533;28;20053;-86
2022/08/19 12:40:13;;;;;;;9.20;7.25;;;31.30;54.40;;;;;;5055121;28;20045;-87
2022/08/19 12:42:42;;;;;;;8.90;6.78;;;31.10;55.20;;;;;;5036821;28;20053;-84
2022/08/19 12:45:12;;;;;;;12.80;8.82;;;30.90;54.70;;;;;;5036838;28;20483;-83
2022/08/19 12:47:39;;;;;;;12.07;8.75;;;30.60;55.80;;;;;;5036482;28;20049;-85
2022/08/19 12:50:08;;;;;;;11.10;8.38;;;30.40;57.20;;;;;;5054404;28;20056;-87
2022/08/19 12:52:40;;;;;;;12.32;10.98;;;30.30;58.10;;;;;;5054746;28;20041;-86
2022/08/19 12:55:08;;;;;;;10.55;9.40;;;30.30;59.40;;;;;;5055056;28;20151;-85
2022/08/19 12:57:35;;;;;;;15.68;12.60;;;30.30;59.90;;;;;;5037192;28;20132;-84